Pulcifer, Wisconsin
Current Conditions -  °F | °C
As of 3:15 AM on Sunday 21 Dec 2014 (Local Time) from KEZS Reporting Station
Haze Haze  
Wind Chill: 31°   Ceiling: 1200
Heat Index: 31°   Visibility: 5mi
Dew Point: 27°   Wind: 3mph
Humidity: 87%   Direction: 170°S
Pressure: 30.17"   Gusts: NA
Location:  44.9109°N, 88.3543°W
Report Text: KEZS 210915Z AUTO 17003KT 5SM BR OVC012 M01/M03 A3017 RMK AO2 T10071026
Loading
Personal Weather Stations






























Interactive Weather Map New forecast layout! Learn more

10-Day Weather Forecast

Advertisements
Track Severe Weather on mobile